Time;durP1;ratioP1;P1;durP2;ratioP2;P2;SDS_P1;SDS_P2;PMS_P1;PMS_P2;Temp;Humidity;BMP_temperature;BMP_pressure;BME280_temperature;BME280_humidity;BME280_pressure;Samples;Min_cycle;Max_cycle;Signal;HPM_P1;HPM_P2
2023/12/27 00:00:41;;;;;;;1.80;1.80;;;;;;;;;;6312687;28;20564;-68
2023/12/27 00:03:46;;;;;;;1.93;1.87;;;;;;;;;;6312261;28;20291;-69
2023/12/27 00:06:52;;;;;;;2.23;2.20;;;;;;;;;;6312358;28;20299;-68
2023/12/27 00:09:56;;;;;;;1.63;1.60;;;;;;;;;;6312230;28;20287;-68
2023/12/27 00:13:01;;;;;;;2.13;2.03;;;;;;;;;;6311792;28;20283;-67
2023/12/27 00:16:05;;;;;;;1.97;1.97;;;;;;;;;;6312529;28;20295;-68
2023/12/27 00:19:10;;;;;;;1.87;1.87;;;;;;;;;;6312019;28;20299;-68
2023/12/27 00:22:15;;;;;;;1.90;1.87;;;;;;;;;;6312575;28;20311;-68
2023/12/27 00:25:19;;;;;;;1.70;1.70;;;;;;;;;;6312012;28;20295;-68
2023/12/27 00:28:23;;;;;;;1.60;1.60;;;;;;;;;;6311393;28;20295;-68
2023/12/27 00:31:27;;;;;;;1.50;1.50;;;;;;;;;;6312788;28;20292;-69
2023/12/27 00:34:33;;;;;;;1.80;1.73;;;;;;;;;;6310419;28;20291;-69
2023/12/27 00:37:37;;;;;;;1.77;1.77;;;;;;;;;;6311748;28;20294;-69
2023/12/27 00:40:41;;;;;;;1.40;1.40;;;;;;;;;;6310677;28;20295;-69
2023/12/27 00:43:46;;;;;;;1.73;1.73;;;;;;;;;;6311495;28;20339;-69
2023/12/27 00:46:50;;;;;;;1.70;1.70;;;;;;;;;;6310574;28;20291;-69
2023/12/27 00:49:56;;;;;;;1.63;1.63;;;;;;;;;;6309865;28;20291;-69
2023/12/27 00:53:00;;;;;;;1.70;1.70;;;;;;;;;;6308562;28;20575;-68
2023/12/27 00:56:05;;;;;;;2.00;1.80;;;;;;;;;;6311764;27;20529;-67
2023/12/27 00:59:09;;;;;;;1.70;1.70;;;;;;;;;;6311229;28;20284;-69
2023/12/27 01:02:13;;;;;;;1.70;1.70;;;;;;;;;;6310860;28;20232;-67
2023/12/27 01:05:19;;;;;;;1.50;1.50;;;;;;;;;;6309914;28;20395;-67
2023/12/27 01:08:23;;;;;;;1.50;1.47;;;;;;;;;;6310539;28;20581;-68
2023/12/27 01:11:27;;;;;;;1.50;1.50;;;;;;;;;;6311033;28;20292;-68
2023/12/27 01:14:31;;;;;;;1.70;1.70;;;;;;;;;;6309905;28;20573;-68
2023/12/27 01:17:35;;;;;;;1.70;1.70;;;;;;;;;;6311542;28;20300;-68
2023/12/27 01:20:40;;;;;;;1.47;1.47;;;;;;;;;;6309338;28;20557;-69
2023/12/27 01:23:44;;;;;;;1.83;1.83;;;;;;;;;;6309348;28;20388;-68
2023/12/27 01:26:48;;;;;;;1.40;1.40;;;;;;;;;;6310509;28;20292;-68
2023/12/27 01:29:52;;;;;;;1.60;1.60;;;;;;;;;;6310661;28;20331;-68
2023/12/27 01:32:56;;;;;;;1.80;1.80;;;;;;;;;;6310372;28;20485;-68
2023/12/27 01:36:06;;;;;;;1.67;1.67;;;;;;;;;;6309200;28;20291;-68
2023/12/27 01:39:10;;;;;;;1.80;1.80;;;;;;;;;;6310575;28;20292;-68
2023/12/27 01:42:14;;;;;;;1.70;1.70;;;;;;;;;;6310142;28;20307;-68
2023/12/27 01:45:18;;;;;;;1.70;1.70;;;;;;;;;;6310117;28;20296;-68
2023/12/27 01:48:23;;;;;;;1.30;1.30;;;;;;;;;;6309770;28;20296;-68
2023/12/27 01:51:29;;;;;;;1.87;1.87;;;;;;;;;;6309302;28;20304;-68
2023/12/27 01:54:34;;;;;;;1.47;1.47;;;;;;;;;;6310042;28;20297;-69
2023/12/27 01:57:39;;;;;;;1.70;1.70;;;;;;;;;;6308623;28;20291;-68
2023/12/27 02:00:46;;;;;;;2.00;1.90;;;;;;;;;;6309443;28;20295;-70
2023/12/27 02:03:50;;;;;;;1.70;1.70;;;;;;;;;;6309621;28;20296;-68
2023/12/27 02:06:56;;;;;;;1.63;1.63;;;;;;;;;;6309069;28;20300;-69
2023/12/27 02:10:00;;;;;;;1.63;1.63;;;;;;;;;;6308769;28;20291;-69
2023/12/27 02:13:05;;;;;;;1.40;1.40;;;;;;;;;;6309736;28;20288;-68
2023/12/27 02:16:09;;;;;;;1.80;1.70;;;;;;;;;;6308592;28;20285;-68
2023/12/27 02:19:19;;;;;;;1.40;1.40;;;;;;;;;;6308467;28;20296;-68
2023/12/27 02:22:25;;;;;;;1.77;1.67;;;;;;;;;;6308697;28;20327;-68
2023/12/27 02:25:30;;;;;;;1.43;1.43;;;;;;;;;;6308245;28;20374;-68
2023/12/27 02:28:34;;;;;;;1.50;1.50;;;;;;;;;;6307465;28;20452;-68
2023/12/27 02:31:38;;;;;;;1.57;1.50;;;;;;;;;;6309908;28;20284;-68
2023/12/27 02:34:42;;;;;;;1.50;1.50;;;;;;;;;;6309246;28;20296;-68
2023/12/27 02:37:47;;;;;;;1.57;1.57;;;;;;;;;;6307902;28;20301;-68
2023/12/27 02:40:52;;;;;;;1.70;1.70;;;;;;;;;;6309706;28;20289;-68
2023/12/27 02:43:56;;;;;;;1.50;1.50;;;;;;;;;;6307632;28;20296;-69
2023/12/27 02:47:01;;;;;;;1.53;1.50;;;;;;;;;;6307484;28;20536;-69
2023/12/27 02:50:07;;;;;;;1.50;1.50;;;;;;;;;;6307304;28;20595;-68
2023/12/27 02:53:11;;;;;;;1.50;1.50;;;;;;;;;;6307704;28;20287;-68
2023/12/27 02:56:18;;;;;;;1.40;1.40;;;;;;;;;;6307915;28;20271;-68
2023/12/27 02:59:22;;;;;;;1.70;1.60;;;;;;;;;;6308068;28;20296;-67
2023/12/27 03:02:26;;;;;;;1.50;1.50;;;;;;;;;;6309330;28;20443;-68
2023/12/27 03:05:30;;;;;;;1.60;1.60;;;;;;;;;;6309163;28;20292;-68
2023/12/27 03:08:35;;;;;;;1.40;1.40;;;;;;;;;;6308847;28;20292;-67
2023/12/27 03:11:41;;;;;;;1.20;1.20;;;;;;;;;;6342073;28;20299;-68
2023/12/27 03:14:45;;;;;;;1.50;1.50;;;;;;;;;;6309137;28;20293;-68
2023/12/27 03:17:49;;;;;;;1.30;1.30;;;;;;;;;;6307741;28;20288;-68
2023/12/27 03:20:53;;;;;;;1.60;1.50;;;;;;;;;;6309610;28;20297;-68
2023/12/27 03:23:57;;;;;;;1.43;1.43;;;;;;;;;;6308758;28;20296;-70
2023/12/27 03:27:02;;;;;;;1.30;1.30;;;;;;;;;;6309746;28;20356;-68
2023/12/27 03:30:08;;;;;;;1.60;1.60;;;;;;;;;;6312204;28;20311;-68
2023/12/27 03:33:12;;;;;;;1.10;1.10;;;;;;;;;;6312062;28;20284;-68
2023/12/27 03:36:16;;;;;;;1.27;1.27;;;;;;;;;;6312427;28;20297;-68
2023/12/27 03:39:21;;;;;;;1.40;1.40;;;;;;;;;;6313045;28;20295;-68
2023/12/27 03:42:26;;;;;;;1.13;1.13;;;;;;;;;;6312201;28;20289;-69
2023/12/27 03:45:31;;;;;;;1.60;1.60;;;;;;;;;;6312788;28;20308;-69
2023/12/27 03:48:35;;;;;;;1.20;1.20;;;;;;;;;;6312690;28;20316;-69
2023/12/27 03:51:39;;;;;;;1.30;1.30;;;;;;;;;;6312997;28;20295;-69
2023/12/27 03:54:44;;;;;;;1.47;1.47;;;;;;;;;;6311195;28;20301;-69
2023/12/27 03:57:49;;;;;;;1.30;1.30;;;;;;;;;;6311457;28;20321;-69
2023/12/27 04:00:53;;;;;;;1.20;1.20;;;;;;;;;;6312702;28;20305;-68
2023/12/27 04:03:57;;;;;;;1.33;1.33;;;;;;;;;;6310235;28;20302;-70
2023/12/27 04:07:01;;;;;;;1.10;1.10;;;;;;;;;;6312611;28;20371;-69
2023/12/27 04:10:06;;;;;;;1.53;1.20;;;;;;;;;;6310339;28;20475;-69
2023/12/27 04:13:12;;;;;;;1.37;1.30;;;;;;;;;;6312878;28;20282;-68
2023/12/27 04:16:16;;;;;;;1.10;1.10;;;;;;;;;;6311180;28;20475;-69
2023/12/27 04:19:20;;;;;;;1.10;1.10;;;;;;;;;;6312008;28;20293;-69
2023/12/27 04:22:24;;;;;;;1.00;1.00;;;;;;;;;;6312444;28;20297;-68
2023/12/27 04:25:28;;;;;;;2.20;1.00;;;;;;;;;;6310560;28;20554;-70
2023/12/27 04:28:34;;;;;;;1.17;1.00;;;;;;;;;;6311619;28;20312;-67
2023/12/27 04:31:38;;;;;;;1.27;1.27;;;;;;;;;;6311730;28;20596;-69
2023/12/27 04:34:42;;;;;;;1.10;1.10;;;;;;;;;;6311443;28;20320;-68
2023/12/27 04:37:46;;;;;;;0.93;0.93;;;;;;;;;;6311627;28;20296;-68
2023/12/27 04:40:50;;;;;;;1.00;1.00;;;;;;;;;;6288013;28;20377;-69
2023/12/27 04:43:56;;;;;;;1.10;1.10;;;;;;;;;;6287145;28;20301;-69
2023/12/27 04:47:00;;;;;;;1.00;1.00;;;;;;;;;;6284218;28;20302;-71
2023/12/27 04:50:04;;;;;;;1.00;1.00;;;;;;;;;;6285298;28;20320;-69
2023/12/27 04:53:09;;;;;;;1.10;1.10;;;;;;;;;;6287187;28;20244;-69
2023/12/27 04:56:13;;;;;;;1.70;1.10;;;;;;;;;;6297100;28;20306;-69
2023/12/27 04:59:18;;;;;;;1.00;1.00;;;;;;;;;;6309959;28;20299;-69
2023/12/27 05:02:40;;;;;;;1.10;1.10;;;;;;;;;;6310579;28;20288;-68
2023/12/27 05:05:44;;;;;;;1.07;1.07;;;;;;;;;;6311112;28;20475;-68
2023/12/27 05:08:47;;;;;;;1.10;1.10;;;;;;;;;;6310675;28;20301;-68
2023/12/27 05:11:51;;;;;;;1.10;1.10;;;;;;;;;;6310503;28;20300;-69
2023/12/27 05:14:57;;;;;;;0.90;0.90;;;;;;;;;;6311151;28;20301;-68
2023/12/27 05:18:01;;;;;;;1.07;1.07;;;;;;;;;;6311130;28;20296;-68
2023/12/27 05:21:06;;;;;;;0.90;0.90;;;;;;;;;;6310906;28;20302;-68
2023/12/27 05:24:10;;;;;;;0.80;0.80;;;;;;;;;;6310364;28;20288;-69
2023/12/27 05:27:14;;;;;;;0.90;0.90;;;;;;;;;;6310734;28;20305;-69
2023/12/27 05:30:19;;;;;;;0.90;0.90;;;;;;;;;;6310349;28;20590;-69
2023/12/27 05:33:24;;;;;;;1.10;1.10;;;;;;;;;;6311198;28;20293;-69
2023/12/27 05:36:28;;;;;;;0.90;0.90;;;;;;;;;;6310384;28;20550;-69
2023/12/27 05:39:32;;;;;;;0.97;0.97;;;;;;;;;;6310397;28;20290;-69
2023/12/27 05:42:36;;;;;;;0.80;0.80;;;;;;;;;;6310636;28;20300;-69
2023/12/27 05:45:41;;;;;;;1.80;1.03;;;;;;;;;;6310226;28;20301;-69
2023/12/27 05:48:45;;;;;;;1.20;1.10;;;;;;;;;;6310121;28;20298;-69
2023/12/27 05:51:49;;;;;;;0.80;0.80;;;;;;;;;;6309195;28;20314;-69
2023/12/27 05:54:53;;;;;;;0.93;0.93;;;;;;;;;;6309838;28;20464;-69
2023/12/27 05:57:58;;;;;;;0.97;0.97;;;;;;;;;;6310267;28;20300;-69
2023/12/27 06:01:05;;;;;;;0.93;0.93;;;;;;;;;;6310106;28;20601;-69
2023/12/27 06:04:09;;;;;;;1.07;1.00;;;;;;;;;;6309541;28;20301;-70
2023/12/27 06:07:13;;;;;;;1.60;0.93;;;;;;;;;;6308869;28;20481;-68
2023/12/27 06:10:17;;;;;;;0.90;0.90;;;;;;;;;;6309589;28;20301;-68
2023/12/27 06:13:21;;;;;;;0.90;0.90;;;;;;;;;;6310141;28;20485;-69
2023/12/27 06:16:26;;;;;;;0.80;0.80;;;;;;;;;;6309625;28;20293;-69
2023/12/27 06:19:30;;;;;;;1.00;1.00;;;;;;;;;;6309494;28;20292;-69
2023/12/27 06:22:34;;;;;;;0.90;0.90;;;;;;;;;;6309881;28;20294;-69
2023/12/27 06:25:38;;;;;;;1.40;0.87;;;;;;;;;;6309400;28;20293;-69
2023/12/27 06:28:44;;;;;;;1.00;1.00;;;;;;;;;;6310082;28;20317;-69
2023/12/27 06:31:49;;;;;;;0.80;0.80;;;;;;;;;;6309096;28;20302;-69
2023/12/27 06:34:53;;;;;;;0.90;0.90;;;;;;;;;;6309411;28;20299;-69
2023/12/27 06:37:57;;;;;;;0.87;0.87;;;;;;;;;;6309678;28;20301;-69
2023/12/27 06:41:02;;;;;;;0.80;0.80;;;;;;;;;;6308577;28;20302;-70
2023/12/27 06:44:06;;;;;;;0.83;0.83;;;;;;;;;;6308953;28;20429;-69
2023/12/27 06:47:12;;;;;;;0.90;0.90;;;;;;;;;;6309410;28;20257;-69
2023/12/27 06:50:15;;;;;;;1.57;1.00;;;;;;;;;;6308858;28;20309;-69
2023/12/27 06:53:19;;;;;;;0.70;0.70;;;;;;;;;;6308304;28;20569;-68
2023/12/27 06:56:23;;;;;;;0.70;0.70;;;;;;;;;;6308735;28;20286;-69
2023/12/27 06:59:27;;;;;;;0.93;0.93;;;;;;;;;;6308442;28;20336;-69
2023/12/27 07:02:33;;;;;;;2.33;1.07;;;;;;;;;;6312560;28;20295;-70
2023/12/27 07:05:38;;;;;;;1.23;0.87;;;;;;;;;;6313563;28;20293;-69
2023/12/27 07:08:43;;;;;;;1.10;1.00;;;;;;;;;;6314330;28;20289;-69
2023/12/27 07:11:46;;;;;;;2.27;0.90;;;;;;;;;;6313156;28;20395;-69
2023/12/27 07:14:50;;;;;;;0.90;0.90;;;;;;;;;;6313677;28;20297;-69
2023/12/27 07:17:57;;;;;;;0.90;0.90;;;;;;;;;;6313880;28;20317;-69
2023/12/27 07:21:01;;;;;;;0.90;0.90;;;;;;;;;;6313493;28;20310;-69
2023/12/27 07:24:06;;;;;;;1.00;1.00;;;;;;;;;;6313153;28;20297;-69
2023/12/27 07:27:10;;;;;;;2.57;1.40;;;;;;;;;;6313725;28;20301;-69
2023/12/27 07:30:15;;;;;;;1.00;1.00;;;;;;;;;;6313017;28;20298;-69
2023/12/27 07:33:20;;;;;;;0.80;0.80;;;;;;;;;;6313909;28;20290;-69
2023/12/27 07:36:25;;;;;;;0.80;0.80;;;;;;;;;;6312938;28;20416;-69
2023/12/27 07:39:28;;;;;;;0.80;0.80;;;;;;;;;;6312979;28;20287;-69
2023/12/27 07:42:32;;;;;;;0.90;0.90;;;;;;;;;;6313293;28;20389;-70
2023/12/27 07:45:36;;;;;;;1.40;0.90;;;;;;;;;;6313100;28;20297;-69
2023/12/27 07:48:42;;;;;;;0.90;0.90;;;;;;;;;;6313631;28;20301;-69
2023/12/27 07:51:46;;;;;;;0.70;0.70;;;;;;;;;;6312710;28;20613;-69
2023/12/27 07:54:50;;;;;;;0.83;0.83;;;;;;;;;;6312839;28;20313;-70
2023/12/27 07:57:54;;;;;;;0.70;0.70;;;;;;;;;;6313421;28;20302;-69
2023/12/27 08:00:58;;;;;;;0.80;0.80;;;;;;;;;;6312908;28;20305;-69
2023/12/27 08:04:04;;;;;;;0.80;0.80;;;;;;;;;;6312584;28;20297;-70
2023/12/27 08:07:08;;;;;;;1.07;0.90;;;;;;;;;;6313302;28;20302;-69
2023/12/27 08:10:12;;;;;;;0.93;0.93;;;;;;;;;;6312834;28;20301;-70
2023/12/27 08:13:16;;;;;;;0.80;0.80;;;;;;;;;;6311968;28;20298;-69
2023/12/27 08:16:20;;;;;;;0.80;0.80;;;;;;;;;;6311002;28;20289;-69
2023/12/27 08:19:25;;;;;;;1.33;0.70;;;;;;;;;;6312602;28;20302;-69
2023/12/27 08:22:29;;;;;;;1.70;0.73;;;;;;;;;;6312720;28;20587;-69
2023/12/27 08:25:34;;;;;;;1.70;1.00;;;;;;;;;;6310602;28;20294;-70
2023/12/27 08:28:38;;;;;;;1.13;0.90;;;;;;;;;;6312260;28;20302;-68
2023/12/27 08:31:42;;;;;;;2.27;1.20;;;;;;;;;;6311366;28;20290;-69
2023/12/27 08:34:49;;;;;;;0.73;0.73;;;;;;;;;;6312159;28;20291;-69
2023/12/27 08:37:53;;;;;;;0.93;0.93;;;;;;;;;;6312295;28;20458;-69
2023/12/27 08:40:57;;;;;;;1.43;0.80;;;;;;;;;;6311908;28;20582;-68
2023/12/27 08:44:01;;;;;;;0.80;0.80;;;;;;;;;;6311073;28;20263;-69
2023/12/27 08:47:05;;;;;;;2.13;1.10;;;;;;;;;;6311973;28;20243;-69
2023/12/27 08:50:11;;;;;;;2.20;1.00;;;;;;;;;;6311599;28;20560;-69
2023/12/27 08:53:15;;;;;;;0.80;0.80;;;;;;;;;;6312144;28;20274;-69
2023/12/27 08:56:19;;;;;;;1.47;0.90;;;;;;;;;;6311431;28;20314;-69
2023/12/27 08:59:23;;;;;;;1.27;0.80;;;;;;;;;;6311793;28;20294;-68
2023/12/27 09:02:27;;;;;;;1.63;0.90;;;;;;;;;;6311939;28;20293;-69
2023/12/27 09:05:32;;;;;;;1.17;0.80;;;;;;;;;;6311287;28;20278;-68
2023/12/27 09:08:36;;;;;;;2.30;1.17;;;;;;;;;;6311725;28;20286;-69
2023/12/27 09:11:40;;;;;;;1.20;1.10;;;;;;;;;;6310620;28;20596;-68
2023/12/27 09:14:45;;;;;;;1.63;0.93;;;;;;;;;;6310886;28;20310;-69
2023/12/27 09:17:49;;;;;;;4.33;1.20;;;;;;;;;;6310957;28;20298;-69
2023/12/27 09:20:54;;;;;;;1.30;1.20;;;;;;;;;;6311025;28;20298;-69
2023/12/27 09:23:58;;;;;;;2.40;1.30;;;;;;;;;;6310407;28;20301;-70
2023/12/27 09:27:03;;;;;;;2.07;1.10;;;;;;;;;;6310827;28;20365;-69
2023/12/27 09:30:08;;;;;;;1.93;1.20;;;;;;;;;;6310140;28;20603;-69
2023/12/27 09:33:12;;;;;;;1.00;1.00;;;;;;;;;;6310609;28;20299;-69
2023/12/27 09:36:22;;;;;;;1.30;1.20;;;;;;;;;;6310759;28;20298;-69
2023/12/27 09:39:26;;;;;;;1.90;1.07;;;;;;;;;;6310533;28;20295;-69
2023/12/27 09:42:32;;;;;;;1.57;1.17;;;;;;;;;;6310570;28;20455;-69
2023/12/27 09:45:37;;;;;;;3.00;1.10;;;;;;;;;;6310315;28;20297;-71
2023/12/27 09:48:41;;;;;;;0.97;0.93;;;;;;;;;;6310599;28;20294;-69
2023/12/27 09:51:48;;;;;;;1.63;1.00;;;;;;;;;;6309688;28;20304;-69
2023/12/27 09:54:52;;;;;;;2.23;1.30;;;;;;;;;;6310107;28;20296;-70
2023/12/27 09:57:56;;;;;;;2.03;1.20;;;;;;;;;;6310691;28;20301;-69
2023/12/27 10:01:02;;;;;;;1.00;1.00;;;;;;;;;;6308717;28;20294;-70
2023/12/27 10:04:12;;;;;;;4.97;1.37;;;;;;;;;;6309609;28;20294;-70
2023/12/27 10:07:18;;;;;;;1.20;1.10;;;;;;;;;;6310305;28;20539;-68
2023/12/27 10:10:22;;;;;;;1.37;1.07;;;;;;;;;;6309575;28;20304;-68
2023/12/27 10:13:32;;;;;;;1.17;1.07;;;;;;;;;;6301087;28;20293;-68
2023/12/27 10:16:36;;;;;;;1.00;1.00;;;;;;;;;;6309560;28;20286;-70
2023/12/27 10:19:41;;;;;;;1.60;1.30;;;;;;;;;;6309266;28;20443;-69
2023/12/27 10:22:46;;;;;;;1.93;1.40;;;;;;;;;;6308975;28;20293;-68
2023/12/27 10:25:52;;;;;;;1.77;0.80;;;;;;;;;;6309773;28;20300;-68
2023/12/27 10:28:56;;;;;;;2.73;1.10;;;;;;;;;;6309771;28;20293;-68
2023/12/27 10:32:01;;;;;;;1.00;1.00;;;;;;;;;;6308266;28;20345;-69
2023/12/27 10:35:06;;;;;;;1.00;1.00;;;;;;;;;;6309164;28;20386;-68
2023/12/27 10:38:14;;;;;;;3.83;1.40;;;;;;;;;;6309447;28;20242;-68
2023/12/27 10:41:18;;;;;;;3.10;1.23;;;;;;;;;;6309541;28;20300;-68
2023/12/27 10:44:22;;;;;;;3.67;1.10;;;;;;;;;;6309595;28;20586;-68
2023/12/27 10:47:28;;;;;;;1.17;1.13;;;;;;;;;;6309450;28;20293;-69
2023/12/27 10:50:33;;;;;;;1.00;0.90;;;;;;;;;;6308642;28;20312;-69
2023/12/27 10:53:40;;;;;;;1.77;1.03;;;;;;;;;;6309001;28;20296;-70
2023/12/27 10:56:45;;;;;;;1.33;1.20;;;;;;;;;;6309108;28;20278;-69
2023/12/27 10:59:49;;;;;;;4.67;1.10;;;;;;;;;;6309023;28;20296;-69
2023/12/27 11:02:53;;;;;;;6.77;1.10;;;;;;;;;;6308200;28;20462;-69
2023/12/27 11:05:58;;;;;;;1.60;1.50;;;;;;;;;;6308943;28;20494;-68
2023/12/27 11:09:07;;;;;;;2.13;1.23;;;;;;;;;;6308337;28;20535;-69
2023/12/27 11:12:11;;;;;;;1.07;1.00;;;;;;;;;;6308896;28;20280;-69
2023/12/27 11:15:15;;;;;;;1.37;1.33;;;;;;;;;;6308957;28;20295;-68
2023/12/27 11:18:20;;;;;;;1.30;1.20;;;;;;;;;;6309091;28;20598;-69
2023/12/27 11:21:24;;;;;;;1.70;1.20;;;;;;;;;;6308870;28;20598;-69
2023/12/27 11:24:29;;;;;;;2.13;1.30;;;;;;;;;;6308610;28;20289;-69
2023/12/27 11:27:33;;;;;;;1.47;1.40;;;;;;;;;;6308807;28;20305;-69
2023/12/27 11:30:38;;;;;;;1.17;1.10;;;;;;;;;;6308374;28;20312;-70
2023/12/27 11:33:44;;;;;;;1.90;1.40;;;;;;;;;;6308901;28;20305;-68
2023/12/27 11:36:48;;;;;;;1.23;1.23;;;;;;;;;;6308785;28;20295;-68
2023/12/27 11:39:53;;;;;;;2.83;1.20;;;;;;;;;;6308863;28;20458;-68
2023/12/27 11:42:57;;;;;;;6.53;1.23;;;;;;;;;;6309213;28;20293;-68
2023/12/27 11:46:02;;;;;;;1.93;1.30;;;;;;;;;;6308667;28;20289;-68
2023/12/27 11:49:06;;;;;;;1.40;1.40;;;;;;;;;;6311109;28;20290;-69
2023/12/27 11:52:12;;;;;;;1.50;1.40;;;;;;;;;;6312183;28;20294;-69
2023/12/27 11:55:19;;;;;;;1.10;1.10;;;;;;;;;;6312690;28;20298;-68
2023/12/27 11:58:34;;;;;;;1.80;1.17;;;;;;;;;;6313236;28;20296;-68
2023/12/27 12:01:40;;;;;;;2.37;1.30;;;;;;;;;;6312589;28;20298;-68
2023/12/27 12:04:50;;;;;;;2.73;1.40;;;;;;;;;;6305763;28;20294;-69
2023/12/27 12:08:01;;;;;;;1.20;1.10;;;;;;;;;;6311924;28;20422;-69
2023/12/27 12:11:09;;;;;;;1.40;1.30;;;;;;;;;;6304654;28;20561;-69
2023/12/27 12:14:13;;;;;;;2.17;1.07;;;;;;;;;;6311936;28;20272;-69
2023/12/27 12:17:17;;;;;;;1.23;1.10;;;;;;;;;;6312429;28;20241;-68
2023/12/27 12:20:21;;;;;;;2.77;1.33;;;;;;;;;;6311864;28;20602;-68
2023/12/27 12:23:25;;;;;;;1.43;1.23;;;;;;;;;;6312642;28;20301;-68
2023/12/27 12:26:30;;;;;;;4.30;1.30;;;;;;;;;;6312010;28;20292;-68
2023/12/27 12:29:34;;;;;;;1.37;1.20;;;;;;;;;;6311868;28;20290;-68
2023/12/27 12:32:40;;;;;;;3.80;1.10;;;;;;;;;;6312168;28;20284;-68
2023/12/27 12:35:44;;;;;;;2.30;1.13;;;;;;;;;;6312006;28;20302;-68
2023/12/27 12:38:49;;;;;;;2.23;1.30;;;;;;;;;;6312484;28;20346;-68
2023/12/27 12:41:54;;;;;;;1.90;1.20;;;;;;;;;;6311885;28;20304;-68
2023/12/27 12:44:58;;;;;;;4.80;1.30;;;;;;;;;;6311668;28;20308;-68
2023/12/27 12:48:02;;;;;;;1.13;1.00;;;;;;;;;;6312247;28;20290;-68
2023/12/27 12:51:10;;;;;;;1.60;1.20;;;;;;;;;;6311702;28;20317;-68
2023/12/27 12:54:14;;;;;;;1.20;1.10;;;;;;;;;;6311571;28;20302;-68
2023/12/27 12:57:20;;;;;;;2.83;1.60;;;;;;;;;;6311779;28;20290;-69
2023/12/27 13:00:24;;;;;;;3.73;1.60;;;;;;;;;;6310922;28;20365;-69
2023/12/27 13:03:28;;;;;;;3.17;1.27;;;;;;;;;;6311983;28;20295;-68
2023/12/27 13:06:32;;;;;;;1.13;1.10;;;;;;;;;;6302541;28;20301;-68
2023/12/27 13:09:59;;;;;;;3.80;1.10;;;;;;;;;;6311079;28;20285;-69
2023/12/27 13:13:06;;;;;;;3.30;1.40;;;;;;;;;;6311214;28;20371;-67
2023/12/27 13:16:10;;;;;;;1.07;1.00;;;;;;;;;;6311331;28;20297;-69
2023/12/27 13:19:16;;;;;;;1.60;1.03;;;;;;;;;;6311329;28;20292;-68
2023/12/27 13:22:21;;;;;;;1.73;1.27;;;;;;;;;;6311440;28;20305;-69
2023/12/27 13:25:25;;;;;;;2.87;1.37;;;;;;;;;;6310924;28;20306;-68
2023/12/27 13:28:30;;;;;;;3.53;1.40;;;;;;;;;;6310805;28;20301;-69
2023/12/27 13:31:34;;;;;;;1.83;1.20;;;;;;;;;;6310957;28;20296;-68
2023/12/27 13:34:38;;;;;;;3.50;1.30;;;;;;;;;;6310617;28;20290;-68
2023/12/27 13:37:42;;;;;;;3.07;1.30;;;;;;;;;;6311055;28;20298;-69
2023/12/27 13:40:46;;;;;;;4.73;1.20;;;;;;;;;;6310579;28;20302;-68
2023/12/27 13:43:51;;;;;;;1.20;1.20;;;;;;;;;;6311007;28;20558;-69
2023/12/27 13:46:57;;;;;;;1.47;1.27;;;;;;;;;;6310614;28;20313;-68
2023/12/27 13:50:01;;;;;;;1.70;1.07;;;;;;;;;;6309397;28;20292;-68
2023/12/27 13:53:05;;;;;;;1.63;1.13;;;;;;;;;;6310828;28;20242;-69
2023/12/27 13:56:09;;;;;;;1.30;1.10;;;;;;;;;;6310469;28;20298;-68
2023/12/27 13:59:14;;;;;;;1.10;1.10;;;;;;;;;;6309872;28;20242;-69
2023/12/27 14:02:18;;;;;;;2.30;1.23;;;;;;;;;;6310283;28;20247;-68
2023/12/27 14:05:22;;;;;;;2.50;1.17;;;;;;;;;;6301462;28;20289;-69
2023/12/27 14:08:26;;;;;;;5.00;1.30;;;;;;;;;;6309257;28;20422;-69
2023/12/27 14:11:30;;;;;;;1.07;1.07;;;;;;;;;;6309069;28;20287;-68
2023/12/27 14:14:36;;;;;;;1.57;1.30;;;;;;;;;;6308450;28;20308;-68
2023/12/27 14:17:41;;;;;;;1.73;1.23;;;;;;;;;;6310242;28;20301;-68
2023/12/27 14:20:46;;;;;;;1.83;1.43;;;;;;;;;;6309875;28;20292;-68
2023/12/27 14:23:50;;;;;;;1.10;1.10;;;;;;;;;;6310133;28;20296;-68
2023/12/27 14:26:55;;;;;;;1.10;1.00;;;;;;;;;;6309544;28;20295;-68
2023/12/27 14:30:01;;;;;;;1.93;1.10;;;;;;;;;;6309609;28;20298;-67
2023/12/27 14:33:08;;;;;;;1.30;1.20;;;;;;;;;;6310419;28;20274;-66
2023/12/27 14:36:12;;;;;;;1.37;1.27;;;;;;;;;;6309936;28;20307;-67
2023/12/27 14:39:16;;;;;;;1.87;1.30;;;;;;;;;;6309728;28;20302;-67
2023/12/27 14:42:20;;;;;;;1.03;1.00;;;;;;;;;;6308880;28;20288;-68
2023/12/27 14:45:26;;;;;;;3.00;1.60;;;;;;;;;;6309969;28;20299;-67
2023/12/27 14:48:32;;;;;;;1.30;1.30;;;;;;;;;;6309630;28;20294;-68
2023/12/27 14:51:36;;;;;;;2.23;1.30;;;;;;;;;;6309307;28;20295;-69
2023/12/27 14:54:40;;;;;;;3.50;1.30;;;;;;;;;;6309252;28;20302;-68
2023/12/27 14:57:44;;;;;;;1.30;1.30;;;;;;;;;;6309807;28;20349;-67
2023/12/27 15:00:49;;;;;;;1.50;1.40;;;;;;;;;;6309187;28;20307;-68
2023/12/27 15:03:53;;;;;;;4.00;1.43;;;;;;;;;;6309948;28;20302;-68
2023/12/27 15:06:58;;;;;;;1.30;1.20;;;;;;;;;;6301306;28;20382;-69
2023/12/27 15:10:05;;;;;;;2.43;1.23;;;;;;;;;;6309461;28;20299;-68
2023/12/27 15:13:09;;;;;;;1.17;1.17;;;;;;;;;;6309730;28;20592;-70
2023/12/27 15:16:17;;;;;;;1.57;1.20;;;;;;;;;;6307928;28;20289;-69
2023/12/27 15:19:21;;;;;;;1.90;1.17;;;;;;;;;;6308911;28;20563;-67
2023/12/27 15:22:25;;;;;;;1.57;1.23;;;;;;;;;;6311390;28;20480;-70
2023/12/27 15:25:29;;;;;;;3.97;1.30;;;;;;;;;;6314521;28;20300;-71
2023/12/27 15:28:33;;;;;;;1.27;1.10;;;;;;;;;;6314699;28;20297;-68
2023/12/27 15:31:38;;;;;;;2.40;1.53;;;;;;;;;;6313365;28;20290;-69
2023/12/27 15:34:43;;;;;;;1.30;1.30;;;;;;;;;;6313617;28;20294;-68
2023/12/27 15:37:47;;;;;;;4.50;1.17;;;;;;;;;;6314125;28;20578;-69
2023/12/27 15:40:51;;;;;;;1.20;1.20;;;;;;;;;;6314043;28;20300;-69
2023/12/27 15:43:58;;;;;;;3.50;1.50;;;;;;;;;;6313622;28;20305;-70
2023/12/27 15:47:08;;;;;;;3.70;1.30;;;;;;;;;;6312730;28;20290;-70
2023/12/27 15:50:12;;;;;;;1.27;1.27;;;;;;;;;;6312884;28;20295;-70
2023/12/27 15:53:16;;;;;;;1.40;1.30;;;;;;;;;;6313892;28;20292;-70
2023/12/27 15:56:21;;;;;;;1.60;1.40;;;;;;;;;;6311366;28;20306;-70
2023/12/27 15:59:25;;;;;;;1.13;1.10;;;;;;;;;;6312506;28;20288;-66
2023/12/27 16:02:31;;;;;;;2.73;1.30;;;;;;;;;;6312411;28;20315;-67
2023/12/27 16:05:34;;;;;;;2.63;1.10;;;;;;;;;;6312224;28;20286;-70
2023/12/27 16:08:43;;;;;;;4.53;1.37;;;;;;;;;;6312572;28;20290;-69
2023/12/27 16:11:48;;;;;;;1.13;1.13;;;;;;;;;;6312028;28;20302;-69
2023/12/27 16:14:52;;;;;;;1.20;1.20;;;;;;;;;;6312647;28;20290;-67
2023/12/27 16:17:59;;;;;;;1.20;1.10;;;;;;;;;;6312765;28;20307;-68
2023/12/27 16:21:05;;;;;;;1.60;1.47;;;;;;;;;;6311323;28;20299;-67
2023/12/27 16:24:09;;;;;;;1.40;1.30;;;;;;;;;;6312157;28;20587;-66
2023/12/27 16:27:13;;;;;;;1.93;1.57;;;;;;;;;;6312299;28;20333;-67
2023/12/27 16:30:17;;;;;;;2.80;1.57;;;;;;;;;;6312481;28;20291;-67
2023/12/27 16:33:23;;;;;;;2.77;1.83;;;;;;;;;;6310934;28;20475;-66
2023/12/27 16:36:27;;;;;;;1.70;1.27;;;;;;;;;;6312022;28;20301;-67
2023/12/27 16:39:31;;;;;;;2.87;1.30;;;;;;;;;;6304901;28;20286;-67
2023/12/27 16:42:35;;;;;;;1.70;1.43;;;;;;;;;;6286680;28;20567;-66
2023/12/27 16:45:39;;;;;;;3.13;1.37;;;;;;;;;;6286798;28;20296;-67
2023/12/27 16:48:46;;;;;;;3.87;1.90;;;;;;;;;;6287341;28;20296;-66
2023/12/27 16:51:51;;;;;;;5.30;1.10;;;;;;;;;;6286906;28;20331;-67
2023/12/27 16:54:55;;;;;;;1.30;1.20;;;;;;;;;;6287953;28;20306;-67
2023/12/27 16:57:59;;;;;;;1.77;1.47;;;;;;;;;;6312126;28;20290;-69
2023/12/27 17:01:03;;;;;;;3.47;1.30;;;;;;;;;;6311525;28;20453;-66
2023/12/27 17:04:09;;;;;;;1.27;1.23;;;;;;;;;;6310143;28;20290;-68
2023/12/27 17:07:14;;;;;;;1.27;1.17;;;;;;;;;;6305528;28;20298;-67
2023/12/27 17:10:18;;;;;;;1.37;1.27;;;;;;;;;;6311668;28;20290;-67
2023/12/27 17:13:21;;;;;;;2.20;1.57;;;;;;;;;;6311914;28;20294;-67
2023/12/27 17:16:25;;;;;;;1.60;1.20;;;;;;;;;;6310769;28;20299;-68
2023/12/27 17:19:31;;;;;;;1.47;1.37;;;;;;;;;;6311441;28;20294;-68
2023/12/27 17:22:35;;;;;;;2.93;1.37;;;;;;;;;;6311726;28;20289;-68
2023/12/27 17:25:40;;;;;;;3.43;1.30;;;;;;;;;;6309964;28;20289;-68
2023/12/27 17:28:45;;;;;;;1.50;1.33;;;;;;;;;;6311382;28;20298;-67
2023/12/27 17:31:50;;;;;;;2.83;1.10;;;;;;;;;;6310885;28;20297;-68
2023/12/27 17:34:56;;;;;;;1.50;1.40;;;;;;;;;;6310640;28;20303;-68
2023/12/27 17:38:00;;;;;;;1.47;1.23;;;;;;;;;;6310831;28;20297;-68
2023/12/27 17:41:04;;;;;;;2.47;1.60;;;;;;;;;;6309757;28;20289;-68
2023/12/27 17:44:08;;;;;;;3.77;1.20;;;;;;;;;;6310569;28;20539;-69
2023/12/27 17:47:12;;;;;;;2.00;1.10;;;;;;;;;;6309673;28;20235;-67
2023/12/27 17:50:18;;;;;;;1.70;1.30;;;;;;;;;;6310016;28;20290;-68
2023/12/27 17:53:22;;;;;;;3.23;1.40;;;;;;;;;;6310592;28;20302;-68
2023/12/27 17:56:26;;;;;;;2.17;1.50;;;;;;;;;;6309937;28;20313;-68
2023/12/27 17:59:30;;;;;;;2.30;1.47;;;;;;;;;;6310297;28;20305;-67
2023/12/27 18:02:35;;;;;;;1.67;1.50;;;;;;;;;;6310324;28;20297;-67
2023/12/27 18:05:41;;;;;;;3.57;1.53;;;;;;;;;;6310237;28;20294;-70
2023/12/27 18:08:46;;;;;;;1.40;1.30;;;;;;;;;;6311005;28;20567;-67
2023/12/27 18:11:51;;;;;;;1.87;1.77;;;;;;;;;;6309809;28;20289;-68
2023/12/27 18:14:55;;;;;;;2.60;1.17;;;;;;;;;;6309952;28;20302;-69
2023/12/27 18:17:59;;;;;;;1.40;1.40;;;;;;;;;;6310233;28;20302;-68
2023/12/27 18:21:06;;;;;;;1.07;1.07;;;;;;;;;;6309850;28;20290;-68
2023/12/27 18:24:10;;;;;;;3.20;1.60;;;;;;;;;;6308860;28;20483;-68
2023/12/27 18:27:14;;;;;;;6.03;1.63;;;;;;;;;;6310415;28;20313;-67